Time;durP1;ratioP1;P1;durP2;ratioP2;P2;SDS_P1;SDS_P2;PMS_P1;PMS_P2;Temp;Humidity;BMP_temperature;BMP_pressure;BME280_temperature;BME280_humidity;BME280_pressure;Samples;Min_cycle;Max_cycle;Signal;HPM_P1;HPM_P2
2023/09/30 00:00:58;;;;;;;27.73;14.33;;;;;;;18.16;61.87;97026.09;4965450;28;20500;-68
2023/09/30 00:03:23;;;;;;;28.03;15.00;;;;;;;18.22;61.55;97027.53;4979849;28;20792;-69
2023/09/30 00:05:49;;;;;;;24.40;13.20;;;;;;;18.15;61.69;97027.91;4973596;28;20213;-69
2023/09/30 00:08:15;;;;;;;28.23;14.00;;;;;;;18.05;62.41;97041.84;4967058;28;20172;-71
2023/09/30 00:10:40;;;;;;;32.50;15.60;;;;;;;17.96;62.46;97038.84;4984330;28;20664;-68
2023/09/30 00:13:08;;;;;;;29.33;14.40;;;;;;;17.98;62.52;97036.97;4986307;28;20181;-67
2023/09/30 00:15:34;;;;;;;29.50;15.47;;;;;;;17.97;62.51;97040.53;4985969;28;20747;-69
2023/09/30 00:18:01;;;;;;;23.40;11.87;;;;;;;17.91;63.00;97037.44;4978682;28;20429;-70
2023/09/30 00:20:29;;;;;;;23.10;13.80;;;;;;;17.99;62.63;97036.00;4966648;28;20181;-69
2023/09/30 00:22:54;;;;;;;21.60;13.63;;;;;;;18.07;62.40;97032.88;4967150;28;20439;-69
2023/09/30 00:25:20;;;;;;;23.77;12.50;;;;;;;18.08;62.09;97031.91;4959585;28;20932;-70
2023/09/30 00:27:46;;;;;;;25.03;13.40;;;;;;;18.10;61.96;97042.44;4966447;28;20200;-68
2023/09/30 00:30:12;;;;;;;24.00;12.10;;;;;;;18.06;62.12;97036.47;4966611;28;20605;-68
2023/09/30 00:32:37;;;;;;;20.33;12.20;;;;;;;18.07;61.99;97035.53;4967180;28;20205;-69
2023/09/30 00:35:03;;;;;;;22.93;12.17;;;;;;;18.09;61.86;97032.75;4967087;28;20174;-69
2023/09/30 00:37:28;;;;;;;17.73;9.63;;;;;;;18.13;61.71;97029.81;4966805;28;20934;-70
2023/09/30 00:39:53;;;;;;;21.90;10.83;;;;;;;18.02;62.15;97042.91;4966829;28;20292;-68
2023/09/30 00:42:20;;;;;;;21.33;11.07;;;;;;;18.13;61.43;97032.47;4966824;28;20645;-71
2023/09/30 00:44:46;;;;;;;30.27;12.67;;;;;;;18.09;61.67;97024.78;4966916;28;20621;-69
2023/09/30 00:47:14;;;;;;;23.30;12.20;;;;;;;18.09;61.85;97032.75;4966663;28;20484;-68
2023/09/30 00:49:43;;;;;;;19.63;11.37;;;;;;;17.98;62.18;97029.00;4966804;28;20441;-69
2023/09/30 00:52:09;;;;;;;23.90;11.30;;;;;;;18.03;61.91;97030.50;4966832;28;20878;-70
2023/09/30 00:54:35;;;;;;;24.60;11.23;;;;;;;18.05;61.84;97025.94;4965102;28;20515;-69
2023/09/30 00:57:01;;;;;;;24.43;12.47;;;;;;;18.07;61.85;97032.88;4966291;28;20200;-69
2023/09/30 00:59:29;;;;;;;19.67;10.40;;;;;;;18.00;62.26;97031.56;4966117;28;20830;-68
2023/09/30 01:01:57;;;;;;;18.87;10.90;;;;;;;18.00;62.37;97031.56;4966707;28;20429;-68
2023/09/30 01:04:23;;;;;;;22.73;10.80;;;;;;;17.94;62.17;97027.47;4969389;28;20432;-70
2023/09/30 01:06:48;;;;;;;20.17;10.50;;;;;;;17.92;62.15;97029.38;4976768;28;20998;-69
2023/09/30 01:09:14;;;;;;;18.30;11.10;;;;;;;17.88;62.16;97021.69;4971941;28;20448;-67
2023/09/30 01:11:44;;;;;;;34.00;11.83;;;;;;;17.88;62.41;97017.25;4966180;28;20700;-69
2023/09/30 01:14:30;;;;;;;18.73;9.90;;;;;;;17.78;62.74;97011.63;4966714;28;20228;-69
2023/09/30 01:16:56;;;;;;;20.93;10.90;;;;;;;17.75;63.26;97024.25;4966087;28;20417;-69
2023/09/30 01:19:23;;;;;;;31.33;10.83;;;;;;;17.77;62.84;97020.53;4965772;28;20451;-69
2023/09/30 01:21:49;;;;;;;23.60;10.40;;;;;;;17.79;62.94;97028.41;4974521;28;20228;-69
2023/09/30 01:24:15;;;;;;;27.13;11.60;;;;;;;17.83;62.75;97029.09;4969838;28;20417;-68
2023/09/30 01:26:42;;;;;;;31.43;10.60;;;;;;;17.76;62.63;97020.63;4969996;28;20180;-68
2023/09/30 01:29:10;;;;;;;24.77;10.53;;;;;;;17.76;62.88;97026.81;4969702;28;20453;-69
2023/09/30 01:31:36;;;;;;;20.73;10.67;;;;;;;17.75;62.81;97026.91;4969867;28;20456;-69
2023/09/30 01:34:01;;;;;;;17.30;10.57;;;;;;;17.73;62.86;97026.97;4969955;28;20479;-69
2023/09/30 01:36:28;;;;;;;21.03;12.13;;;;;;;17.72;62.92;97021.78;4969467;28;20177;-68
2023/09/30 01:38:53;;;;;;;19.70;10.47;;;;;;;17.63;63.22;97032.97;4969037;28;20693;-68
2023/09/30 01:41:19;;;;;;;22.63;12.57;;;;;;;17.63;62.95;97030.31;4969528;28;20487;-68
2023/09/30 01:43:44;;;;;;;20.57;10.10;;;;;;;17.55;63.35;97034.31;4969586;28;20716;-68
2023/09/30 01:46:10;;;;;;;18.90;10.80;;;;;;;17.43;63.80;97028.88;4969411;28;20180;-70
2023/09/30 01:48:36;;;;;;;21.63;11.00;;;;;;;17.41;64.12;97036.97;4968867;28;20677;-69
2023/09/30 01:51:01;;;;;;;23.70;11.43;;;;;;;17.39;64.26;97040.66;4969492;28;20220;-69
2023/09/30 01:53:26;;;;;;;23.20;10.30;;;;;;;17.35;64.24;97046.13;4969321;28;20651;-68
2023/09/30 01:55:52;;;;;;;21.67;11.43;;;;;;;17.28;64.56;97044.78;4969113;28;20771;-69
2023/09/30 01:58:17;;;;;;;29.30;11.23;;;;;;;17.31;64.34;97033.13;4969012;28;20573;-69
2023/09/30 02:00:43;;;;;;;26.10;11.30;;;;;;;17.34;63.89;97030.31;4969133;28;20177;-69
2023/09/30 02:03:08;;;;;;;23.13;11.30;;;;;;;17.31;64.60;97025.19;4969282;28;20232;-70
2023/09/30 02:05:34;;;;;;;16.73;9.43;;;;;;;17.32;64.34;97021.59;4969063;28;20178;-69
2023/09/30 02:07:59;;;;;;;20.57;9.90;;;;;;;17.34;64.03;97014.41;4969388;28;20177;-69
2023/09/30 02:10:24;;;;;;;19.63;9.80;;;;;;;17.22;64.49;97025.75;4969314;28;20202;-70
2023/09/30 02:12:50;;;;;;;22.57;11.07;;;;;;;17.24;64.38;97030.00;4958102;28;20265;-69
2023/09/30 02:15:16;;;;;;;19.47;11.37;;;;;;;17.24;64.36;97029.16;4950071;29;20178;-68
2023/09/30 02:17:45;;;;;;;19.13;9.37;;;;;;;17.18;64.90;97041.00;4949455;28;20600;-70
2023/09/30 02:20:13;;;;;;;23.13;11.70;;;;;;;17.14;64.96;97036.81;4964483;28;20251;-69
2023/09/30 02:22:39;;;;;;;23.10;11.13;;;;;;;17.05;64.96;97035.56;4968791;28;20441;-70
2023/09/30 02:25:07;;;;;;;24.50;10.87;;;;;;;17.09;64.84;97030.94;4969001;28;20496;-69
2023/09/30 02:27:33;;;;;;;18.23;10.73;;;;;;;17.07;64.77;97024.88;4968463;28;20461;-69
2023/09/30 02:29:58;;;;;;;21.17;10.73;;;;;;;17.02;65.08;97027.78;4968408;28;20484;-69
2023/09/30 02:32:23;;;;;;;18.07;9.60;;;;;;;17.02;64.99;97024.31;4968904;28;20308;-68
2023/09/30 02:34:50;;;;;;;21.77;9.87;;;;;;;16.99;64.90;97025.34;4967726;28;20209;-70
2023/09/30 02:37:15;;;;;;;23.10;11.60;;;;;;;16.94;65.38;97035.38;4968524;28;20181;-70
2023/09/30 02:39:41;;;;;;;17.73;9.70;;;;;;;16.86;65.99;97033.16;4965926;28;20531;-70
2023/09/30 02:42:06;;;;;;;23.37;11.50;;;;;;;16.77;66.20;97038.09;4962707;28;20174;-69
2023/09/30 02:44:31;;;;;;;16.73;10.33;;;;;;;16.83;65.80;97041.28;4968590;28;20176;-69
2023/09/30 02:46:57;;;;;;;22.13;11.10;;;;;;;16.73;66.37;97048.06;4968337;28;20185;-68
2023/09/30 02:49:22;;;;;;;20.70;9.97;;;;;;;16.62;66.51;97043.34;4968459;28;20576;-69
2023/09/30 02:51:47;;;;;;;18.80;9.60;;;;;;;16.56;66.66;97041.09;4968796;28;20206;-68
2023/09/30 02:54:16;;;;;;;24.43;10.80;;;;;;;16.56;66.93;97043.72;4968587;28;20177;-69
2023/09/30 02:56:41;;;;;;;18.50;11.03;;;;;;;16.36;67.74;97044.84;4967968;28;20224;-69
2023/09/30 02:59:07;;;;;;;20.97;11.27;;;;;;;16.58;66.50;97036.53;4967738;28;20457;-68
2023/09/30 03:01:33;;;;;;;20.30;10.40;;;;;;;16.50;67.44;97041.41;4967996;28;20189;-67
2023/09/30 03:03:58;;;;;;;21.83;10.90;;;;;;;16.61;66.55;97043.47;4968209;28;20284;-70
2023/09/30 03:06:24;;;;;;;26.47;10.43;;;;;;;16.39;67.26;97055.25;4968107;28;20200;-69
2023/09/30 03:08:49;;;;;;;19.43;9.80;;;;;;;16.44;66.95;97061.19;4967948;28;20726;-69
2023/09/30 03:11:14;;;;;;;23.40;11.17;;;;;;;16.59;67.07;97061.25;4968149;28;20216;-69
2023/09/30 03:13:42;;;;;;;21.23;10.97;;;;;;;16.70;66.70;97062.34;4968106;28;20229;-69
2023/09/30 03:16:08;;;;;;;24.30;12.47;;;;;;;16.69;66.36;97065.91;4967892;28;20182;-69
2023/09/30 03:18:33;;;;;;;25.97;11.40;;;;;;;16.66;66.51;97066.09;4967598;28;20456;-70
2023/09/30 03:21:00;;;;;;;21.60;11.23;;;;;;;16.68;66.27;97068.66;4967684;28;20535;-69
2023/09/30 03:23:30;;;;;;;30.90;11.80;;;;;;;16.76;65.40;97062.91;4967879;28;20273;-69
2023/09/30 03:25:58;;;;;;;20.73;9.63;;;;;;;16.69;65.83;97063.25;4967486;28;20424;-69
2023/09/30 03:28:24;;;;;;;24.60;10.73;;;;;;;16.75;65.64;97059.41;4967809;28;20451;-69
2023/09/30 03:30:50;;;;;;;19.57;10.40;;;;;;;16.74;65.72;97057.69;4967668;28;20461;-70
2023/09/30 03:33:15;;;;;;;21.27;11.40;;;;;;;16.68;65.89;97063.38;4967659;28;20220;-69
2023/09/30 03:35:41;;;;;;;21.80;11.03;;;;;;;16.62;66.10;97051.31;4967167;28;20228;-68
2023/09/30 03:38:09;;;;;;;26.93;10.00;;;;;;;16.57;66.01;97050.72;4967490;28;20786;-70
2023/09/30 03:40:38;;;;;;;19.37;11.30;;;;;;;16.63;65.90;97057.47;4967680;28;20417;-70
2023/09/30 03:43:05;;;;;;;20.27;8.87;;;;;;;16.59;66.21;97070.03;4967341;28;20971;-69
2023/09/30 03:45:34;;;;;;;18.50;9.80;;;;;;;16.65;65.77;97061.75;4966821;28;20445;-67
2023/09/30 03:48:02;;;;;;;20.03;9.87;;;;;;;16.65;65.82;97071.47;4967452;28;20428;-69
2023/09/30 03:50:29;;;;;;;18.63;9.43;;;;;;;16.49;66.45;97072.38;4967572;28;20417;-69
2023/09/30 03:53:01;;;;;;;16.87;9.17;;;;;;;16.55;66.37;97072.94;4967540;28;20412;-69
2023/09/30 03:55:27;;;;;;;23.07;9.70;;;;;;;16.47;66.59;97068.94;4967673;28;20983;-68
2023/09/30 03:57:52;;;;;;;20.33;10.50;;;;;;;16.42;66.49;97071.00;4966890;28;20425;-69
2023/09/30 04:00:19;;;;;;;22.20;9.87;;;;;;;16.44;66.38;97071.78;4966560;28;20202;-68
2023/09/30 04:02:48;;;;;;;24.30;10.40;;;;;;;16.52;66.33;97066.03;4966923;28;20236;-69
2023/09/30 04:05:15;;;;;;;17.27;8.80;;;;;;;16.42;66.71;97060.41;4967240;28;20413;-68
2023/09/30 04:07:42;;;;;;;20.10;10.03;;;;;;;16.33;66.80;97050.34;4966878;28;20471;-68
2023/09/30 04:10:08;;;;;;;20.33;10.40;;;;;;;16.38;67.06;97058.03;4965772;28;20531;-68
2023/09/30 04:12:33;;;;;;;25.17;10.37;;;;;;;16.52;65.88;97052.78;4973522;28;21043;-69
2023/09/30 04:14:59;;;;;;;16.73;8.30;;;;;;;16.33;67.15;97050.34;4966980;28;20412;-68
2023/09/30 04:17:26;;;;;;;23.20;9.37;;;;;;;16.36;66.42;97049.31;4967000;28;20656;-68
2023/09/30 04:19:52;;;;;;;27.17;10.00;;;;;;;16.39;66.75;97046.47;4966313;28;20441;-69
2023/09/30 04:22:18;;;;;;;20.73;10.37;;;;;;;16.38;nan;97042.97;4966872;28;20436;-70
2023/09/30 04:24:44;;;;;;;18.43;8.83;;;;;;;16.44;66.53;97040.00;4967008;28;20200;-68
2023/09/30 04:27:09;;;;;;;18.37;9.33;;;;;;;16.44;66.58;97040.00;4966690;28;20711;-70
2023/09/30 04:29:35;;;;;;;65.13;14.90;;;;;;;16.47;66.27;97046.91;4963989;28;20926;-69
2023/09/30 04:32:00;;;;;;;27.60;9.63;;;;;;;16.47;66.56;97041.59;4966848;28;20205;-69
2023/09/30 04:34:28;;;;;;;14.90;9.30;;;;;;;16.36;66.44;97034.25;4966984;28;20228;-70
2023/09/30 04:36:53;;;;;;;14.10;7.80;;;;;;;16.25;67.38;97042.81;4966626;28;20237;-70
2023/09/30 04:39:19;;;;;;;19.50;10.63;;;;;;;16.18;67.83;97046.75;4966228;28;20959;-68
2023/09/30 04:41:44;;;;;;;21.90;9.80;;;;;;;16.34;67.00;97046.72;4966691;28;20708;-68
2023/09/30 04:44:09;;;;;;;17.07;9.47;;;;;;;16.31;66.87;97052.22;4966775;28;20216;-69
2023/09/30 04:46:40;;;;;;;57.20;12.10;;;;;;;16.30;67.17;97054.00;4966611;28;20249;-69
2023/09/30 04:49:08;;;;;;;18.07;8.87;;;;;;;16.33;66.62;97054.78;4966295;28;20673;-67
2023/09/30 04:51:34;;;;;;;34.70;9.50;;;;;;;16.35;66.79;97064.34;4966732;28;20991;-68
2023/09/30 04:54:00;;;;;;;50.30;11.23;;;;;;;16.25;67.03;97066.66;4967004;28;20441;-69
2023/09/30 04:56:25;;;;;;;19.83;9.20;;;;;;;16.23;66.94;97068.53;4966529;28;20177;-69
2023/09/30 04:58:51;;;;;;;16.30;8.43;;;;;;;16.11;67.25;97071.88;4970061;28;20711;-69
2023/09/30 05:01:18;;;;;;;16.20;10.30;;;;;;;16.22;67.23;97068.63;4970343;28;20620;-70
2023/09/30 05:03:44;;;;;;;23.33;9.27;;;;;;;16.20;67.40;97065.19;4970239;28;20189;-69
2023/09/30 05:06:10;;;;;;;17.27;9.67;;;;;;;16.04;67.80;97089.88;4969846;28;20431;-69
2023/09/30 05:08:35;;;;;;;19.43;7.77;;;;;;;16.24;67.40;97103.81;4970133;28;20444;-68
2023/09/30 05:11:01;;;;;;;16.47;7.90;;;;;;;16.22;67.41;97098.59;4970184;28;20209;-69
2023/09/30 05:13:26;;;;;;;21.93;8.20;;;;;;;16.30;66.70;97092.91;4970125;28;20173;-69
2023/09/30 05:15:52;;;;;;;19.07;8.50;;;;;;;16.35;66.92;97097.94;4969859;28;20265;-70
2023/09/30 05:18:17;;;;;;;25.80;8.87;;;;;;;16.29;67.35;97099.13;4970016;28;20198;-68
2023/09/30 05:20:43;;;;;;;22.10;9.90;;;;;;;16.30;67.47;97100.84;4970027;28;20173;-71
2023/09/30 05:23:12;;;;;;;13.73;6.63;;;;;;;16.24;67.50;97102.00;4969893;28;20957;-69
2023/09/30 05:25:39;;;;;;;15.60;7.63;;;;;;;16.17;67.72;97105.94;4961178;28;20422;-69
2023/09/30 05:28:06;;;;;;;28.23;8.60;;;;;;;16.30;67.22;97112.28;4969677;28;20413;-68
2023/09/30 05:30:33;;;;;;;16.37;7.40;;;;;;;16.35;67.37;97109.38;4969950;28;20413;-67
2023/09/30 05:33:00;;;;;;;14.83;6.97;;;;;;;16.46;66.47;97109.63;4970298;28;20411;-70
2023/09/30 05:35:25;;;;;;;11.07;6.83;;;;;;;16.38;66.40;97117.16;4969788;28;20944;-69
2023/09/30 05:37:53;;;;;;;14.40;7.70;;;;;;;16.36;66.75;97115.53;4969838;28;20415;-70
2023/09/30 05:40:23;;;;;;;19.80;8.37;;;;;;;16.45;66.54;97117.66;4969064;28;20285;-69
2023/09/30 05:42:49;;;;;;;26.43;9.67;;;;;;;16.46;66.70;97114.94;4969775;28;20433;-70
2023/09/30 05:45:15;;;;;;;18.37;7.80;;;;;;;16.50;66.79;97118.25;4969585;28;20405;-69
2023/09/30 05:47:41;;;;;;;129.97;18.77;;;;;;;16.56;66.26;97112.63;4969624;28;20220;-70
2023/09/30 05:50:09;;;;;;;37.63;10.50;;;;;;;16.55;66.42;97121.50;4969368;28;20565;-70
2023/09/30 05:52:34;;;;;;;35.13;10.80;;;;;;;16.58;65.80;97131.91;4969925;28;20223;-69
2023/09/30 05:55:00;;;;;;;16.77;7.50;;;;;;;16.57;66.15;97132.88;4969752;28;20408;-70
2023/09/30 05:57:26;;;;;;;16.00;7.60;;;;;;;16.58;66.45;97131.91;4969278;28;20189;-69
2023/09/30 05:59:52;;;;;;;18.27;8.13;;;;;;;16.61;66.56;97125.63;4969361;28;20444;-70
2023/09/30 06:02:17;;;;;;;15.00;7.03;;;;;;;16.58;66.43;97121.31;4969351;28;20174;-69
2023/09/30 06:04:42;;;;;;;17.87;8.63;;;;;;;16.48;66.52;97113.03;4969034;28;20224;-69
2023/09/30 06:07:08;;;;;;;13.67;6.10;;;;;;;16.52;66.98;97117.22;4968732;28;20342;-68
2023/09/30 06:09:34;;;;;;;22.73;7.50;;;;;;;16.64;66.63;97113.03;4968589;28;20248;-70
2023/09/30 06:12:03;;;;;;;21.53;7.70;;;;;;;16.77;66.20;97121.16;4968893;28;20201;-69
2023/09/30 06:14:30;;;;;;;12.93;5.83;;;;;;;16.81;65.93;97116.53;4969098;28;20633;-68
2023/09/30 06:16:56;;;;;;;13.97;6.83;;;;;;;16.77;66.13;97107.03;4968831;28;20405;-69
2023/09/30 06:19:21;;;;;;;13.40;7.00;;;;;;;16.80;66.39;97105.09;4968789;28;20475;-69
2023/09/30 06:21:47;;;;;;;12.40;6.70;;;;;;;16.92;65.77;97114.97;4968767;28;20181;-68
2023/09/30 06:24:12;;;;;;;12.53;6.40;;;;;;;17.07;65.20;97102.63;4969141;28;20188;-68
2023/09/30 06:26:38;;;;;;;11.33;6.20;;;;;;;16.80;66.72;97112.19;4968521;28;20177;-69
2023/09/30 06:29:03;;;;;;;11.70;6.50;;;;;;;17.32;65.08;97111.78;4969021;28;20957;-69
2023/09/30 06:31:28;;;;;;;27.63;9.10;;;;;;;17.62;63.35;97118.84;4969276;28;20711;-68
2023/09/30 06:33:58;;;;;;;37.20;8.30;;;;;;;17.57;63.53;97119.13;4969298;28;20201;-69
2023/09/30 06:36:23;;;;;;;17.10;8.10;;;;;;;17.36;64.12;97121.25;4968659;28;20541;-69
2023/09/30 06:38:50;;;;;;;13.80;7.33;;;;;;;17.52;63.59;97122.06;4968679;28;20433;-69
2023/09/30 06:41:18;;;;;;;11.90;7.50;;;;;;;17.65;63.33;97137.25;4968765;28;20181;-69
2023/09/30 06:43:44;;;;;;;17.77;6.63;;;;;;;17.59;63.39;97141.13;4968698;28;20417;-69
2023/09/30 06:46:10;;;;;;;23.97;7.47;;;;;;;17.92;62.31;97140.91;4968205;28;20412;-69
2023/09/30 06:48:36;;;;;;;26.73;7.73;;;;;;;18.12;61.82;97145.00;4967837;28;20300;-69
2023/09/30 06:51:01;;;;;;;13.57;7.60;;;;;;;18.36;60.98;97155.88;4968436;28;20966;-69
2023/09/30 06:53:27;;;;;;;13.43;6.67;;;;;;;18.26;61.07;97161.84;4968516;28;20413;-67
2023/09/30 06:55:52;;;;;;;12.50;6.20;;;;;;;18.15;61.35;97167.84;4968132;28;20276;-71
2023/09/30 06:58:21;;;;;;;16.73;8.80;;;;;;;17.92;62.20;97164.78;4968530;28;20221;-70
2023/09/30 07:00:51;;;;;;;48.50;9.93;;;;;;;17.83;62.72;97157.38;4968605;28;20170;-71
2023/09/30 07:03:17;;;;;;;16.80;7.43;;;;;;;17.72;62.82;97171.28;4969821;28;20417;-70
2023/09/30 07:05:43;;;;;;;15.00;7.87;;;;;;;17.57;63.27;97182.81;4966846;28;20405;-69
2023/09/30 07:08:09;;;;;;;14.83;7.00;;;;;;;17.52;63.67;97176.94;4969090;28;20827;-69
2023/09/30 07:10:35;;;;;;;11.70;6.83;;;;;;;17.51;63.65;97184.03;4968691;28;20193;-69
2023/09/30 07:13:04;;;;;;;13.50;7.30;;;;;;;17.49;63.67;97182.44;4968164;28;20424;-70
2023/09/30 07:15:29;;;;;;;11.13;6.43;;;;;;;17.68;63.50;97187.50;4968399;28;20189;-68
2023/09/30 07:17:55;;;;;;;11.70;7.80;;;;;;;17.71;63.06;97187.31;4967864;28;20424;-69
2023/09/30 07:20:22;;;;;;;13.50;7.27;;;;;;;17.72;63.24;97181.06;4966782;28;20670;-69
2023/09/30 07:22:48;;;;;;;32.47;10.87;;;;;;;17.77;62.92;97187.78;4967466;28;20177;-68
2023/09/30 07:25:17;;;;;;;30.17;8.57;;;;;;;17.68;63.14;97198.13;4968256;28;20500;-69
2023/09/30 07:27:45;;;;;;;13.23;7.23;;;;;;;17.50;64.10;97208.88;4968482;28;20182;-69
2023/09/30 07:30:12;;;;;;;15.27;7.20;;;;;;;17.43;64.05;97215.47;4974715;28;20424;-70
2023/09/30 07:32:38;;;;;;;11.37;6.80;;;;;;;17.43;64.22;97215.47;4973063;28;20464;-70
2023/09/30 07:35:03;;;;;;;10.63;6.53;;;;;;;17.35;64.53;97218.56;4972318;28;20536;-70
2023/09/30 07:37:29;;;;;;;10.20;6.90;;;;;;;17.50;63.91;97216.84;4968282;28;20188;-69
2023/09/30 07:39:54;;;;;;;10.40;6.90;;;;;;;17.56;63.93;97221.78;4967458;28;20264;-70
2023/09/30 07:42:20;;;;;;;9.17;7.10;;;;;;;17.46;64.37;97219.78;4967229;28;20184;-68
2023/09/30 07:44:45;;;;;;;11.37;7.50;;;;;;;17.34;64.52;97216.03;4966976;28;20739;-69
2023/09/30 07:47:11;;;;;;;12.30;6.63;;;;;;;17.50;64.55;97205.34;4966912;28;20281;-68
2023/09/30 07:49:38;;;;;;;9.20;6.37;;;;;;;17.45;63.77;97212.75;4967420;28;20197;-69
2023/09/30 07:52:03;;;;;;;14.60;7.20;;;;;;;17.57;63.78;97212.00;4967159;28;20690;-69
2023/09/30 07:54:29;;;;;;;16.40;6.90;;;;;;;17.59;63.74;97209.28;4967124;28;20416;-69
2023/09/30 07:56:55;;;;;;;23.00;9.40;;;;;;;17.69;63.00;97210.44;4966931;28;20264;-68
2023/09/30 07:59:20;;;;;;;29.40;9.43;;;;;;;17.72;63.09;97218.22;4967088;28;20193;-69
2023/09/30 08:01:47;;;;;;;13.20;6.70;;;;;;;17.37;64.34;97215.00;4967108;28;20253;-69
2023/09/30 08:04:13;;;;;;;10.67;7.17;;;;;;;17.24;65.05;97218.34;4967177;28;20173;-68
2023/09/30 08:06:39;;;;;;;11.00;7.33;;;;;;;17.46;63.73;97231.22;4966795;28;20904;-67
2023/09/30 08:09:09;;;;;;;11.77;7.50;;;;;;;17.37;64.47;97225.63;4966427;28;20961;-69
2023/09/30 08:11:36;;;;;;;11.43;7.07;;;;;;;17.76;62.90;97207.34;4966728;28;20951;-69
2023/09/30 08:14:09;;;;;;;10.70;6.10;;;;;;;17.53;63.53;97207.84;4973788;28;20417;-69
2023/09/30 08:16:37;;;;;;;14.50;6.20;;;;;;;17.98;62.43;97222.00;4967382;28;20441;-69
2023/09/30 08:19:03;;;;;;;21.30;7.00;;;;;;;18.44;60.75;97218.31;4966933;28;20425;-69
2023/09/30 08:21:30;;;;;;;10.30;6.60;;;;;;;18.67;59.75;97224.84;4966909;28;20412;-69
2023/09/30 08:23:55;;;;;;;9.23;6.57;;;;;;;18.43;60.52;97224.59;4966967;28;20643;-68
2023/09/30 08:26:20;;;;;;;9.20;6.30;;;;;;;18.45;60.14;97220.00;4966542;28;20413;-69
2023/09/30 08:28:46;;;;;;;10.37;6.50;;;;;;;18.24;60.75;97231.03;4966863;28;20848;-69
2023/09/30 08:31:11;;;;;;;10.73;6.47;;;;;;;18.40;60.54;97239.78;4968668;28;20224;-69
2023/09/30 08:33:39;;;;;;;10.30;6.20;;;;;;;17.83;61.15;97229.06;4970928;28;20180;-67
2023/09/30 08:36:07;;;;;;;12.83;6.00;;;;;;;18.18;60.80;97223.44;4970582;28;20180;-68
2023/09/30 08:38:35;;;;;;;10.13;6.40;;;;;;;18.34;60.43;97231.31;4970697;28;20443;-68
2023/09/30 08:41:02;;;;;;;9.70;5.97;;;;;;;18.30;60.26;97232.47;4970750;28;20446;-69
2023/09/30 08:43:30;;;;;;;11.30;5.90;;;;;;;18.23;59.99;97228.47;4970476;28;20412;-68
2023/09/30 08:45:56;;;;;;;8.80;5.73;;;;;;;18.08;59.85;97232.94;4968833;28;20412;-70
2023/09/30 08:48:23;;;;;;;10.57;5.47;;;;;;;18.44;58.95;97226.28;4970334;28;21218;-68
2023/09/30 08:50:50;;;;;;;7.33;5.80;;;;;;;18.15;60.24;97232.44;4970387;28;20169;-69
2023/09/30 08:53:16;;;;;;;11.33;6.97;;;;;;;17.94;60.35;97233.75;4971069;28;20413;-69
2023/09/30 08:55:43;;;;;;;7.57;6.20;;;;;;;18.17;60.25;97232.38;4970569;28;20417;-68
2023/09/30 08:58:11;;;;;;;7.60;5.40;;;;;;;18.35;59.55;97233.91;4970388;28;20424;-69
2023/09/30 09:00:38;;;;;;;9.67;5.93;;;;;;;18.27;60.25;97214.91;4969924;28;20413;-69
2023/09/30 09:03:05;;;;;;;10.43;6.30;;;;;;;18.36;60.07;97221.47;4970350;28;20499;-68
2023/09/30 09:05:30;;;;;;;12.30;7.13;;;;;;;18.14;60.65;97216.59;4970147;28;20935;-69
2023/09/30 09:07:56;;;;;;;15.57;7.40;;;;;;;18.14;60.52;97221.91;4969960;28;20405;-69
2023/09/30 09:10:21;;;;;;;11.43;6.50;;;;;;;18.51;59.27;97219.63;4969649;28;20689;-70
2023/09/30 09:12:56;;;;;;;15.43;6.80;;;;;;;18.48;59.13;97210.06;4970127;28;20433;-70
2023/09/30 09:15:30;;;;;;;10.00;6.70;;;;;;;18.43;59.22;97211.31;4970484;28;20950;-68
2023/09/30 09:17:56;;;;;;;11.07;6.20;;;;;;;18.67;58.12;97203.59;4969907;28;20413;-69
2023/09/30 09:20:24;;;;;;;9.27;6.60;;;;;;;19.24;56.50;97208.78;4970188;28;21097;-70
2023/09/30 09:22:53;;;;;;;9.40;6.00;;;;;;;19.78;54.69;97210.53;4969763;28;20178;-69
2023/09/30 09:25:26;;;;;;;8.67;5.70;;;;;;;20.08;53.85;97215.59;4969609;28;20804;-70
2023/09/30 09:27:53;;;;;;;9.70;6.10;;;;;;;19.88;53.58;97214.28;4969529;28;21416;-69
2023/09/30 09:30:22;;;;;;;8.97;6.33;;;;;;;20.02;53.74;97206.19;4969418;28;21340;-67
2023/09/30 09:32:58;;;;;;;10.73;5.30;;;;;;;20.20;52.36;97205.88;4969328;28;21033;-70
2023/09/30 09:35:25;;;;;;;9.33;5.27;;;;;;;20.37;52.19;97205.53;4969613;28;20515;-70
2023/09/30 09:38:02;;;;;;;9.43;6.10;;;;;;;20.56;51.00;97194.44;4969542;28;20511;-70
2023/09/30 09:40:32;;;;;;;9.23;5.30;;;;;;;20.57;51.14;97195.28;4969107;28;20440;-69
2023/09/30 09:42:59;;;;;;;11.10;6.40;;;;;;;20.50;51.44;97206.38;4961528;28;21092;-69
2023/09/30 09:45:26;;;;;;;12.77;6.03;;;;;;;20.13;52.20;97207.28;4969990;28;20413;-70
2023/09/30 09:47:53;;;;;;;14.47;6.53;;;;;;;19.93;52.79;97205.97;4969873;28;20420;-70
2023/09/30 09:50:20;;;;;;;20.07;7.70;;;;;;;20.11;52.55;97207.38;4969587;28;20531;-70
2023/09/30 09:52:58;;;;;;;15.10;6.83;;;;;;;20.22;52.46;97203.94;4971034;28;20971;-69
2023/09/30 09:55:25;;;;;;;12.07;6.33;;;;;;;19.50;54.19;97208.84;4971515;28;20479;-70
2023/09/30 09:57:51;;;;;;;25.13;8.17;;;;;;;20.03;53.01;97197.25;4969835;28;20781;-68
2023/09/30 10:00:23;;;;;;;12.27;6.60;;;;;;;20.32;51.95;97205.03;4969401;28;20515;-72
2023/09/30 10:02:50;;;;;;;12.50;6.20;;;;;;;20.52;50.94;97203.59;4966927;28;20181;-68
2023/09/30 10:05:16;;;;;;;10.70;6.27;;;;;;;20.21;51.71;97199.56;4966041;28;20413;-70
2023/09/30 10:07:53;;;;;;;13.10;6.53;;;;;;;20.12;52.41;97190.41;4966042;28;20435;-70
2023/09/30 10:10:21;;;;;;;12.00;6.87;;;;;;;20.18;51.83;97181.16;4964701;28;20456;-68
2023/09/30 10:12:46;;;;;;;10.70;5.80;;;;;;;20.00;52.13;97176.13;4966697;28;20467;-70
2023/09/30 10:15:24;;;;;;;10.53;6.20;;;;;;;19.73;53.17;97183.38;4965947;28;20863;-71
2023/09/30 10:18:12;;;;;;;8.47;5.63;;;;;;;20.31;51.50;97176.63;4966561;28;20228;-70
2023/09/30 10:20:41;;;;;;;14.47;6.60;;;;;;;20.84;50.54;97171.97;4966443;28;20857;-70
2023/09/30 10:23:32;;;;;;;13.20;6.80;;;;;;;20.79;50.00;97179.47;4965975;28;20835;-68
2023/09/30 10:26:13;;;;;;;13.10;5.67;;;;;;;21.10;49.95;97178.06;4966293;28;20474;-70
2023/09/30 10:28:45;;;;;;;12.77;6.00;;;;;;;21.35;48.09;97165.53;4966661;28;20533;-70
2023/09/30 10:31:12;;;;;;;9.13;6.00;;;;;;;20.74;49.70;97181.63;4965705;28;20495;-68
2023/09/30 10:33:59;;;;;;;12.03;6.43;;;;;;;20.15;50.36;97178.69;4966606;28;20417;-68
2023/09/30 10:36:39;;;;;;;13.13;6.53;;;;;;;20.28;50.46;97182.19;4965940;28;20493;-69
2023/09/30 10:39:08;;;;;;;10.00;6.23;;;;;;;20.93;48.89;97173.97;4966947;28;20435;-67
2023/09/30 10:41:45;;;;;;;10.17;6.80;;;;;;;20.47;50.31;97174.59;4966530;28;20421;-69
2023/09/30 10:44:22;;;;;;;12.17;7.37;;;;;;;21.10;48.55;97169.22;4966406;28;20417;-70
2023/09/30 10:46:49;;;;;;;9.83;5.97;;;;;;;20.89;48.55;97167.16;4966323;28;20789;-70
2023/09/30 10:49:31;;;;;;;10.47;6.20;;;;;;;21.44;47.79;97164.03;4965559;28;20463;-69
2023/09/30 10:52:01;;;;;;;12.43;6.50;;;;;;;21.37;47.45;97160.94;4966234;28;20452;-70
2023/09/30 10:54:29;;;;;;;15.80;6.60;;;;;;;21.94;46.46;97159.31;4964955;28;20417;-69
2023/09/30 10:56:56;;;;;;;11.33;6.60;;;;;;;21.40;46.60;97151.88;4966219;28;20440;-68
2023/09/30 10:59:23;;;;;;;9.30;6.73;;;;;;;21.42;46.98;97144.59;4965940;28;20512;-70
2023/09/30 11:01:49;;;;;;;11.93;6.47;;;;;;;21.46;46.73;97141.59;4966639;28;20409;-68
2023/09/30 11:04:15;;;;;;;11.57;7.00;;;;;;;21.09;48.32;97143.47;4966226;28;20409;-71
2023/09/30 11:06:42;;;;;;;14.13;7.00;;;;;;;21.31;48.04;97138.25;4965927;28;20964;-69
2023/09/30 11:09:13;;;;;;;12.43;7.30;;;;;;;;;;4966050;28;20703;-68
2023/09/30 11:11:43;;;;;;;9.90;7.10;;;;;;;21.89;46.96;97137.44;4965774;28;20491;-68
2023/09/30 11:14:20;;;;;;;11.80;6.80;;;;;;;21.73;46.27;97133.28;4946385;28;20417;-67
2023/09/30 11:16:53;;;;;;;16.00;7.60;;;;;;;;;;5061055;28;20527;-67
2023/09/30 11:19:22;;;;;;;10.90;6.63;;;;;;;21.51;46.95;97133.22;5060467;28;20448;-70
2023/09/30 11:21:49;;;;;;;11.30;6.70;;;;;;;21.07;48.05;97132.94;5060805;28;20413;-70
2023/09/30 11:24:15;;;;;;;15.83;7.70;;;;;;;21.13;48.04;97127.13;5060290;28;20456;-69